sensor_id;sensor_type;location;lat;lon;timestamp;P1;durP1;ratioP1;P2;durP2;ratioP2
50126;SDS011;36024;47.974;16.398;2022-09-01T00:01:38;5.90;;;4.83;;
50126;SDS011;36024;47.974;16.398;2022-09-01T00:04:08;4.80;;;4.40;;
50126;SDS011;36024;47.974;16.398;2022-09-01T00:06:38;5.03;;;4.50;;
50126;SDS011;36024;47.974;16.398;2022-09-01T00:09:10;5.13;;;4.73;;
50126;SDS011;36024;47.974;16.398;2022-09-01T00:11:39;4.83;;;4.40;;
50126;SDS011;36024;47.974;16.398;2022-09-01T00:14:15;6.00;;;4.13;;
50126;SDS011;36024;47.974;16.398;2022-09-01T00:17:03;4.60;;;4.30;;
50126;SDS011;36024;47.974;16.398;2022-09-01T00:19:31;4.53;;;4.23;;
50126;SDS011;36024;47.974;16.398;2022-09-01T00:24:50;4.50;;;4.17;;
50126;SDS011;36024;47.974;16.398;2022-09-01T00:27:17;4.60;;;4.00;;
50126;SDS011;36024;47.974;16.398;2022-09-01T00:29:44;5.13;;;4.20;;
50126;SDS011;36024;47.974;16.398;2022-09-01T00:32:11;5.33;;;4.23;;
50126;SDS011;36024;47.974;16.398;2022-09-01T00:34:38;4.63;;;4.23;;
50126;SDS011;36024;47.974;16.398;2022-09-01T00:37:05;4.20;;;3.80;;
50126;SDS011;36024;47.974;16.398;2022-09-01T00:39:32;4.47;;;4.07;;
50126;SDS011;36024;47.974;16.398;2022-09-01T00:41:59;4.33;;;4.00;;
50126;SDS011;36024;47.974;16.398;2022-09-01T00:44:26;5.13;;;3.93;;
50126;SDS011;36024;47.974;16.398;2022-09-01T00:46:56;4.30;;;3.93;;
50126;SDS011;36024;47.974;16.398;2022-09-01T00:52:31;4.07;;;3.67;;
50126;SDS011;36024;47.974;16.398;2022-09-01T00:55:06;5.97;;;4.23;;
50126;SDS011;36024;47.974;16.398;2022-09-01T00:57:38;4.10;;;3.70;;
50126;SDS011;36024;47.974;16.398;2022-09-01T01:00:12;4.53;;;3.93;;
50126;SDS011;36024;47.974;16.398;2022-09-01T01:02:44;4.03;;;3.73;;
50126;SDS011;36024;47.974;16.398;2022-09-01T01:05:12;3.87;;;3.57;;
50126;SDS011;36024;47.974;16.398;2022-09-01T01:07:41;4.40;;;3.97;;
50126;SDS011;36024;47.974;16.398;2022-09-01T01:10:13;4.23;;;3.80;;
50126;SDS011;36024;47.974;16.398;2022-09-01T01:12:42;4.53;;;4.03;;
50126;SDS011;36024;47.974;16.398;2022-09-01T01:15:10;4.03;;;3.63;;
50126;SDS011;36024;47.974;16.398;2022-09-01T01:17:38;4.63;;;3.50;;
50126;SDS011;36024;47.974;16.398;2022-09-01T01:20:05;6.53;;;3.90;;
50126;SDS011;36024;47.974;16.398;2022-09-01T01:26:14;4.20;;;3.80;;
50126;SDS011;36024;47.974;16.398;2022-09-01T01:28:41;4.43;;;3.80;;
50126;SDS011;36024;47.974;16.398;2022-09-01T01:31:11;4.13;;;3.53;;
50126;SDS011;36024;47.974;16.398;2022-09-01T01:33:47;4.33;;;3.37;;
50126;SDS011;36024;47.974;16.398;2022-09-01T01:36:18;4.07;;;3.70;;
50126;SDS011;36024;47.974;16.398;2022-09-01T01:38:59;5.47;;;3.70;;
50126;SDS011;36024;47.974;16.398;2022-09-01T01:41:31;3.90;;;3.60;;
50126;SDS011;36024;47.974;16.398;2022-09-01T01:44:00;4.37;;;3.57;;
50126;SDS011;36024;47.974;16.398;2022-09-01T01:46:31;4.13;;;3.57;;
50126;SDS011;36024;47.974;16.398;2022-09-01T01:48:59;4.13;;;3.83;;
50126;SDS011;36024;47.974;16.398;2022-09-01T01:51:28;3.90;;;3.50;;
50126;SDS011;36024;47.974;16.398;2022-09-01T01:53:58;4.50;;;4.10;;
50126;SDS011;36024;47.974;16.398;2022-09-01T01:56:31;4.23;;;3.90;;
50126;SDS011;36024;47.974;16.398;2022-09-01T01:58:59;4.10;;;3.80;;
50126;SDS011;36024;47.974;16.398;2022-09-01T02:01:27;4.47;;;4.17;;
50126;SDS011;36024;47.974;16.398;2022-09-01T02:03:58;5.60;;;3.87;;
50126;SDS011;36024;47.974;16.398;2022-09-01T02:06:26;4.07;;;3.67;;
50126;SDS011;36024;47.974;16.398;2022-09-01T02:08:56;4.20;;;3.80;;
50126;SDS011;36024;47.974;16.398;2022-09-01T02:11:24;3.87;;;3.57;;
50126;SDS011;36024;47.974;16.398;2022-09-01T02:14:11;4.53;;;3.90;;
50126;SDS011;36024;47.974;16.398;2022-09-01T02:16:39;3.80;;;3.50;;
50126;SDS011;36024;47.974;16.398;2022-09-01T02:19:07;4.00;;;3.70;;
50126;SDS011;36024;47.974;16.398;2022-09-01T02:21:38;3.67;;;3.37;;
50126;SDS011;36024;47.974;16.398;2022-09-01T02:24:21;4.50;;;3.37;;
50126;SDS011;36024;47.974;16.398;2022-09-01T02:27:18;4.03;;;3.63;;
50126;SDS011;36024;47.974;16.398;2022-09-01T02:29:52;4.00;;;3.37;;
50126;SDS011;36024;47.974;16.398;2022-09-01T02:32:20;4.17;;;3.60;;
50126;SDS011;36024;47.974;16.398;2022-09-01T02:34:48;4.03;;;3.73;;
50126;SDS011;36024;47.974;16.398;2022-09-01T02:37:19;3.90;;;3.60;;
50126;SDS011;36024;47.974;16.398;2022-09-01T02:39:50;3.80;;;3.60;;
50126;SDS011;36024;47.974;16.398;2022-09-01T02:42:24;4.50;;;3.83;;
50126;SDS011;36024;47.974;16.398;2022-09-01T02:44:55;3.50;;;3.20;;
50126;SDS011;36024;47.974;16.398;2022-09-01T02:47:23;3.70;;;3.40;;
50126;SDS011;36024;47.974;16.398;2022-09-01T02:49:55;3.50;;;3.23;;
50126;SDS011;36024;47.974;16.398;2022-09-01T02:52:23;3.73;;;3.43;;
50126;SDS011;36024;47.974;16.398;2022-09-01T02:54:50;4.00;;;3.70;;
50126;SDS011;36024;47.974;16.398;2022-09-01T02:57:17;4.30;;;3.90;;
50126;SDS011;36024;47.974;16.398;2022-09-01T02:59:44;4.37;;;3.97;;
50126;SDS011;36024;47.974;16.398;2022-09-01T03:02:12;4.23;;;3.80;;
50126;SDS011;36024;47.974;16.398;2022-09-01T03:04:39;4.57;;;3.50;;
50126;SDS011;36024;47.974;16.398;2022-09-01T03:07:07;4.00;;;3.53;;
50126;SDS011;36024;47.974;16.398;2022-09-01T03:09:34;3.70;;;3.40;;
50126;SDS011;36024;47.974;16.398;2022-09-01T03:12:00;3.87;;;3.27;;
50126;SDS011;36024;47.974;16.398;2022-09-01T03:14:28;3.70;;;3.30;;
50126;SDS011;36024;47.974;16.398;2022-09-01T03:16:55;3.40;;;3.20;;
50126;SDS011;36024;47.974;16.398;2022-09-01T03:19:23;3.30;;;3.00;;
50126;SDS011;36024;47.974;16.398;2022-09-01T03:21:49;4.57;;;3.37;;
50126;SDS011;36024;47.974;16.398;2022-09-01T03:24:21;3.60;;;3.30;;
50126;SDS011;36024;47.974;16.398;2022-09-01T03:26:50;3.83;;;3.40;;
50126;SDS011;36024;47.974;16.398;2022-09-01T03:29:18;5.43;;;3.23;;
50126;SDS011;36024;47.974;16.398;2022-09-01T03:31:45;2.83;;;2.63;;
50126;SDS011;36024;47.974;16.398;2022-09-01T03:34:12;3.30;;;3.10;;
50126;SDS011;36024;47.974;16.398;2022-09-01T03:36:46;3.53;;;3.20;;
50126;SDS011;36024;47.974;16.398;2022-09-01T03:39:25;4.43;;;3.17;;
50126;SDS011;36024;47.974;16.398;2022-09-01T03:41:53;3.40;;;3.10;;
50126;SDS011;36024;47.974;16.398;2022-09-01T03:44:23;4.40;;;2.93;;
50126;SDS011;36024;47.974;16.398;2022-09-01T03:46:50;3.63;;;3.33;;
50126;SDS011;36024;47.974;16.398;2022-09-01T03:49:18;3.10;;;2.80;;
50126;SDS011;36024;47.974;16.398;2022-09-01T03:51:55;3.70;;;3.30;;
50126;SDS011;36024;47.974;16.398;2022-09-01T03:54:25;2.97;;;2.70;;
50126;SDS011;36024;47.974;16.398;2022-09-01T03:56:56;2.90;;;2.70;;
50126;SDS011;36024;47.974;16.398;2022-09-01T03:59:24;3.30;;;3.00;;
50126;SDS011;36024;47.974;16.398;2022-09-01T04:01:54;3.53;;;3.23;;
50126;SDS011;36024;47.974;16.398;2022-09-01T04:04:23;5.37;;;3.20;;
50126;SDS011;36024;47.974;16.398;2022-09-01T04:06:49;3.50;;;3.20;;
50126;SDS011;36024;47.974;16.398;2022-09-01T04:09:16;3.43;;;3.13;;
50126;SDS011;36024;47.974;16.398;2022-09-01T04:11:43;5.60;;;2.80;;
50126;SDS011;36024;47.974;16.398;2022-09-01T04:14:13;3.10;;;2.90;;
50126;SDS011;36024;47.974;16.398;2022-09-01T04:16:41;3.03;;;2.80;;
50126;SDS011;36024;47.974;16.398;2022-09-01T04:19:47;4.40;;;3.07;;
50126;SDS011;36024;47.974;16.398;2022-09-01T04:22:15;4.17;;;2.90;;
50126;SDS011;36024;47.974;16.398;2022-09-01T04:24:43;3.67;;;3.37;;
50126;SDS011;36024;47.974;16.398;2022-09-01T04:27:12;4.20;;;3.10;;
50126;SDS011;36024;47.974;16.398;2022-09-01T04:29:39;3.47;;;2.90;;
50126;SDS011;36024;47.974;16.398;2022-09-01T04:32:08;3.43;;;3.13;;
50126;SDS011;36024;47.974;16.398;2022-09-01T04:34:42;3.07;;;2.77;;
50126;SDS011;36024;47.974;16.398;2022-09-01T04:37:13;3.40;;;3.10;;
50126;SDS011;36024;47.974;16.398;2022-09-01T04:39:48;3.63;;;3.00;;
50126;SDS011;36024;47.974;16.398;2022-09-01T04:42:21;3.70;;;3.17;;
50126;SDS011;36024;47.974;16.398;2022-09-01T04:44:50;3.77;;;2.90;;
50126;SDS011;36024;47.974;16.398;2022-09-01T04:50:16;4.47;;;2.90;;
50126;SDS011;36024;47.974;16.398;2022-09-01T04:53:05;2.80;;;2.60;;
50126;SDS011;36024;47.974;16.398;2022-09-01T04:55:44;3.53;;;2.63;;
50126;SDS011;36024;47.974;16.398;2022-09-01T04:58:17;2.70;;;2.50;;
50126;SDS011;36024;47.974;16.398;2022-09-01T05:00:45;3.00;;;2.50;;
50126;SDS011;36024;47.974;16.398;2022-09-01T05:03:22;3.83;;;2.50;;
50126;SDS011;36024;47.974;16.398;2022-09-01T05:06:14;2.90;;;2.50;;
50126;SDS011;36024;47.974;16.398;2022-09-01T05:08:48;2.77;;;2.40;;
50126;SDS011;36024;47.974;16.398;2022-09-01T05:11:34;2.50;;;2.30;;
50126;SDS011;36024;47.974;16.398;2022-09-01T05:14:06;3.17;;;2.23;;
50126;SDS011;36024;47.974;16.398;2022-09-01T05:16:33;3.43;;;2.40;;
50126;SDS011;36024;47.974;16.398;2022-09-01T05:19:01;4.40;;;2.67;;
50126;SDS011;36024;47.974;16.398;2022-09-01T05:21:32;2.40;;;2.20;;
50126;SDS011;36024;47.974;16.398;2022-09-01T05:23:59;3.00;;;2.33;;
50126;SDS011;36024;47.974;16.398;2022-09-01T05:26:28;2.87;;;2.30;;
50126;SDS011;36024;47.974;16.398;2022-09-01T05:28:59;3.93;;;2.30;;
50126;SDS011;36024;47.974;16.398;2022-09-01T05:31:30;2.67;;;2.33;;
50126;SDS011;36024;47.974;16.398;2022-09-01T05:34:00;2.47;;;2.10;;
50126;SDS011;36024;47.974;16.398;2022-09-01T05:36:29;2.33;;;2.13;;
50126;SDS011;36024;47.974;16.398;2022-09-01T05:38:59;3.10;;;2.20;;
50126;SDS011;36024;47.974;16.398;2022-09-01T05:41:28;2.70;;;2.00;;
50126;SDS011;36024;47.974;16.398;2022-09-01T05:43:54;3.50;;;2.10;;
50126;SDS011;36024;47.974;16.398;2022-09-01T05:46:26;3.37;;;2.27;;
50126;SDS011;36024;47.974;16.398;2022-09-01T05:48:55;2.10;;;1.90;;
50126;SDS011;36024;47.974;16.398;2022-09-01T05:51:23;2.30;;;2.10;;
50126;SDS011;36024;47.974;16.398;2022-09-01T05:54:10;3.13;;;2.10;;
50126;SDS011;36024;47.974;16.398;2022-09-01T05:56:38;3.53;;;2.10;;
50126;SDS011;36024;47.974;16.398;2022-09-01T05:59:12;3.00;;;2.30;;
50126;SDS011;36024;47.974;16.398;2022-09-01T06:01:50;4.57;;;2.30;;
50126;SDS011;36024;47.974;16.398;2022-09-01T06:04:19;3.17;;;1.80;;
50126;SDS011;36024;47.974;16.398;2022-09-01T06:06:47;5.07;;;2.10;;
50126;SDS011;36024;47.974;16.398;2022-09-01T06:09:38;4.83;;;2.20;;
50126;SDS011;36024;47.974;16.398;2022-09-01T06:12:07;2.23;;;1.70;;
50126;SDS011;36024;47.974;16.398;2022-09-01T06:14:43;2.87;;;2.00;;
50126;SDS011;36024;47.974;16.398;2022-09-01T06:17:13;3.00;;;2.20;;
50126;SDS011;36024;47.974;16.398;2022-09-01T06:19:42;3.13;;;2.30;;
50126;SDS011;36024;47.974;16.398;2022-09-01T06:22:09;4.53;;;2.27;;
50126;SDS011;36024;47.974;16.398;2022-09-01T06:24:37;4.07;;;1.97;;
50126;SDS011;36024;47.974;16.398;2022-09-01T06:27:09;2.53;;;2.00;;
50126;SDS011;36024;47.974;16.398;2022-09-01T06:29:36;3.33;;;2.07;;
50126;SDS011;36024;47.974;16.398;2022-09-01T06:32:08;3.73;;;2.20;;
50126;SDS011;36024;47.974;16.398;2022-09-01T06:34:40;4.70;;;2.10;;
50126;SDS011;36024;47.974;16.398;2022-09-01T06:37:08;2.27;;;1.97;;
50126;SDS011;36024;47.974;16.398;2022-09-01T06:39:36;3.50;;;2.10;;
50126;SDS011;36024;47.974;16.398;2022-09-01T06:42:03;3.50;;;2.10;;
50126;SDS011;36024;47.974;16.398;2022-09-01T06:44:43;4.90;;;2.00;;
50126;SDS011;36024;47.974;16.398;2022-09-01T06:47:11;3.40;;;2.10;;
50126;SDS011;36024;47.974;16.398;2022-09-01T06:49:38;3.37;;;1.90;;
50126;SDS011;36024;47.974;16.398;2022-09-01T06:52:12;2.63;;;1.80;;
50126;SDS011;36024;47.974;16.398;2022-09-01T06:54:39;3.40;;;2.07;;
50126;SDS011;36024;47.974;16.398;2022-09-01T06:57:09;2.20;;;2.00;;
50126;SDS011;36024;47.974;16.398;2022-09-01T06:59:55;2.13;;;1.87;;
50126;SDS011;36024;47.974;16.398;2022-09-01T07:02:23;3.43;;;1.70;;
50126;SDS011;36024;47.974;16.398;2022-09-01T07:05:24;3.53;;;2.07;;
50126;SDS011;36024;47.974;16.398;2022-09-01T07:08:13;2.57;;;1.83;;
50126;SDS011;36024;47.974;16.398;2022-09-01T07:11:04;5.00;;;1.87;;
50126;SDS011;36024;47.974;16.398;2022-09-01T07:13:54;4.47;;;2.13;;
50126;SDS011;36024;47.974;16.398;2022-09-01T07:16:42;2.27;;;2.03;;
50126;SDS011;36024;47.974;16.398;2022-09-01T07:19:19;4.07;;;2.10;;
50126;SDS011;36024;47.974;16.398;2022-09-01T07:21:51;4.33;;;2.00;;
50126;SDS011;36024;47.974;16.398;2022-09-01T07:24:36;3.33;;;1.80;;
50126;SDS011;36024;47.974;16.398;2022-09-01T07:27:41;3.23;;;1.90;;
50126;SDS011;36024;47.974;16.398;2022-09-01T07:30:19;2.23;;;1.70;;
50126;SDS011;36024;47.974;16.398;2022-09-01T07:32:50;2.47;;;1.90;;
50126;SDS011;36024;47.974;16.398;2022-09-01T07:35:19;2.90;;;1.70;;
50126;SDS011;36024;47.974;16.398;2022-09-01T07:37:48;2.67;;;1.40;;
50126;SDS011;36024;47.974;16.398;2022-09-01T07:40:38;2.33;;;1.60;;
50126;SDS011;36024;47.974;16.398;2022-09-01T07:44:01;2.63;;;1.60;;
50126;SDS011;36024;47.974;16.398;2022-09-01T07:46:48;3.70;;;1.50;;
50126;SDS011;36024;47.974;16.398;2022-09-01T07:49:37;2.57;;;1.80;;
50126;SDS011;36024;47.974;16.398;2022-09-01T07:52:25;2.10;;;1.60;;
50126;SDS011;36024;47.974;16.398;2022-09-01T07:54:55;2.23;;;1.50;;
50126;SDS011;36024;47.974;16.398;2022-09-01T07:57:22;2.07;;;1.60;;
50126;SDS011;36024;47.974;16.398;2022-09-01T07:59:49;2.43;;;1.50;;
50126;SDS011;36024;47.974;16.398;2022-09-01T08:02:37;2.30;;;1.80;;
50126;SDS011;36024;47.974;16.398;2022-09-01T08:05:13;2.67;;;1.87;;
50126;SDS011;36024;47.974;16.398;2022-09-01T08:07:43;1.50;;;1.40;;
50126;SDS011;36024;47.974;16.398;2022-09-01T08:10:25;2.20;;;1.47;;
50126;SDS011;36024;47.974;16.398;2022-09-01T08:12:54;3.17;;;1.57;;
50126;SDS011;36024;47.974;16.398;2022-09-01T08:15:22;2.00;;;1.43;;
50126;SDS011;36024;47.974;16.398;2022-09-01T08:18:10;3.70;;;1.67;;
50126;SDS011;36024;47.974;16.398;2022-09-01T08:20:40;5.40;;;1.47;;
50126;SDS011;36024;47.974;16.398;2022-09-01T08:23:31;1.90;;;1.60;;
50126;SDS011;36024;47.974;16.398;2022-09-01T08:25:58;1.60;;;1.50;;
50126;SDS011;36024;47.974;16.398;2022-09-01T08:28:31;3.00;;;1.40;;
50126;SDS011;36024;47.974;16.398;2022-09-01T08:30:59;2.27;;;1.60;;
50126;SDS011;36024;47.974;16.398;2022-09-01T08:33:26;3.47;;;1.53;;
50126;SDS011;36024;47.974;16.398;2022-09-01T08:35:54;2.77;;;1.30;;
50126;SDS011;36024;47.974;16.398;2022-09-01T08:38:23;1.27;;;1.17;;
50126;SDS011;36024;47.974;16.398;2022-09-01T08:40:51;1.97;;;1.53;;
50126;SDS011;36024;47.974;16.398;2022-09-01T08:46:18;2.00;;;1.37;;
50126;SDS011;36024;47.974;16.398;2022-09-01T08:49:17;1.80;;;1.27;;
50126;SDS011;36024;47.974;16.398;2022-09-01T08:54:54;1.97;;;1.40;;
50126;SDS011;36024;47.974;16.398;2022-09-01T08:57:33;1.87;;;1.37;;
50126;SDS011;36024;47.974;16.398;2022-09-01T09:00:18;3.53;;;1.30;;
50126;SDS011;36024;47.974;16.398;2022-09-01T09:08:30;2.37;;;1.30;;
50126;SDS011;36024;47.974;16.398;2022-09-01T09:14:04;2.43;;;1.20;;
50126;SDS011;36024;47.974;16.398;2022-09-01T09:16:34;2.80;;;1.20;;
50126;SDS011;36024;47.974;16.398;2022-09-01T09:21:40;3.47;;;1.30;;
50126;SDS011;36024;47.974;16.398;2022-09-01T09:27:04;2.07;;;0.90;;
50126;SDS011;36024;47.974;16.398;2022-09-01T09:29:32;1.40;;;1.07;;
50126;SDS011;36024;47.974;16.398;2022-09-01T09:32:06;1.40;;;1.30;;
50126;SDS011;36024;47.974;16.398;2022-09-01T09:34:54;3.30;;;1.00;;
50126;SDS011;36024;47.974;16.398;2022-09-01T09:37:22;1.67;;;1.10;;
50126;SDS011;36024;47.974;16.398;2022-09-01T09:45:39;1.87;;;1.13;;
50126;SDS011;36024;47.974;16.398;2022-09-01T09:48:27;2.00;;;1.13;;
50126;SDS011;36024;47.974;16.398;2022-09-01T09:51:03;1.73;;;1.00;;
50126;SDS011;36024;47.974;16.398;2022-09-01T09:53:41;1.27;;;1.13;;
50126;SDS011;36024;47.974;16.398;2022-09-01T09:56:15;2.03;;;1.13;;
50126;SDS011;36024;47.974;16.398;2022-09-01T09:58:44;1.40;;;1.20;;
50126;SDS011;36024;47.974;16.398;2022-09-01T10:01:34;3.63;;;0.97;;
50126;SDS011;36024;47.974;16.398;2022-09-01T10:04:00;2.80;;;1.08;;
50126;SDS011;36024;47.974;16.398;2022-09-01T10:08:58;1.57;;;1.20;;
50126;SDS011;36024;47.974;16.398;2022-09-01T10:14:11;3.30;;;1.10;;
50126;SDS011;36024;47.974;16.398;2022-09-01T10:17:04;2.53;;;1.00;;
50126;SDS011;36024;47.974;16.398;2022-09-01T10:19:51;1.50;;;1.10;;
50126;SDS011;36024;47.974;16.398;2022-09-01T10:22:20;1.98;;;1.17;;
50126;SDS011;36024;47.974;16.398;2022-09-01T10:24:47;2.35;;;1.10;;
50126;SDS011;36024;47.974;16.398;2022-09-01T10:27:22;1.13;;;1.00;;
50126;SDS011;36024;47.974;16.398;2022-09-01T10:35:34;1.20;;;1.03;;
50126;SDS011;36024;47.974;16.398;2022-09-01T10:38:07;1.45;;;0.90;;
50126;SDS011;36024;47.974;16.398;2022-09-01T10:40:41;2.15;;;1.20;;
50126;SDS011;36024;47.974;16.398;2022-09-01T10:46:40;1.30;;;1.20;;
50126;SDS011;36024;47.974;16.398;2022-09-01T10:49:19;2.00;;;0.90;;
50126;SDS011;36024;47.974;16.398;2022-09-01T10:51:53;3.17;;;1.20;;
50126;SDS011;36024;47.974;16.398;2022-09-01T11:03:49;2.20;;;1.08;;
50126;SDS011;36024;47.974;16.398;2022-09-01T11:06:07;2.92;;;1.20;;
50126;SDS011;36024;47.974;16.398;2022-09-01T11:08:40;3.63;;;1.27;;
50126;SDS011;36024;47.974;16.398;2022-09-01T11:11:37;2.25;;;1.10;;
50126;SDS011;36024;47.974;16.398;2022-09-01T11:14:18;1.48;;;0.90;;
50126;SDS011;36024;47.974;16.398;2022-09-01T11:22:22;2.33;;;1.30;;
50126;SDS011;36024;47.974;16.398;2022-09-01T11:25:04;1.55;;;1.40;;
50126;SDS011;36024;47.974;16.398;2022-09-01T11:30:19;2.58;;;1.10;;
50126;SDS011;36024;47.974;16.398;2022-09-01T11:32:50;4.43;;;1.20;;
50126;SDS011;36024;47.974;16.398;2022-09-01T11:35:20;1.95;;;1.30;;
50126;SDS011;36024;47.974;16.398;2022-09-01T11:37:48;3.15;;;1.08;;
50126;SDS011;36024;47.974;16.398;2022-09-01T11:40:26;2.35;;;1.08;;
50126;SDS011;36024;47.974;16.398;2022-09-01T11:42:58;1.27;;;0.90;;
50126;SDS011;36024;47.974;16.398;2022-09-01T11:45:30;2.60;;;1.02;;
50126;SDS011;36024;47.974;16.398;2022-09-01T11:48:01;1.65;;;1.20;;
50126;SDS011;36024;47.974;16.398;2022-09-01T11:50:36;2.22;;;1.00;;
50126;SDS011;36024;47.974;16.398;2022-09-01T11:55:43;2.60;;;1.20;;
50126;SDS011;36024;47.974;16.398;2022-09-01T12:00:54;2.17;;;1.00;;
50126;SDS011;36024;47.974;16.398;2022-09-01T12:05:55;3.38;;;1.08;;
50126;SDS011;36024;47.974;16.398;2022-09-01T12:08:25;2.95;;;1.20;;
50126;SDS011;36024;47.974;16.398;2022-09-01T12:11:05;2.00;;;1.00;;
50126;SDS011;36024;47.974;16.398;2022-09-01T12:13:33;1.40;;;1.00;;
50126;SDS011;36024;47.974;16.398;2022-09-01T12:16:02;2.40;;;1.15;;
50126;SDS011;36024;47.974;16.398;2022-09-01T12:18:45;2.85;;;1.10;;
50126;SDS011;36024;47.974;16.398;2022-09-01T12:21:21;1.10;;;1.00;;
50126;SDS011;36024;47.974;16.398;2022-09-01T12:23:51;1.30;;;1.02;;
50126;SDS011;36024;47.974;16.398;2022-09-01T12:26:25;2.72;;;1.10;;
50126;SDS011;36024;47.974;16.398;2022-09-01T12:28:52;1.33;;;1.05;;
50126;SDS011;36024;47.974;16.398;2022-09-01T12:31:23;1.33;;;1.10;;
50126;SDS011;36024;47.974;16.398;2022-09-01T12:33:51;1.10;;;1.00;;
50126;SDS011;36024;47.974;16.398;2022-09-01T12:36:20;1.52;;;1.20;;
50126;SDS011;36024;47.974;16.398;2022-09-01T12:38:56;1.15;;;0.93;;
50126;SDS011;36024;47.974;16.398;2022-09-01T12:41:44;2.00;;;1.00;;
50126;SDS011;36024;47.974;16.398;2022-09-01T12:44:25;3.15;;;1.15;;
50126;SDS011;36024;47.974;16.398;2022-09-01T12:46:56;3.83;;;1.10;;
50126;SDS011;36024;47.974;16.398;2022-09-01T12:49:36;3.25;;;1.05;;
50126;SDS011;36024;47.974;16.398;2022-09-01T12:54:46;2.78;;;0.90;;
50126;SDS011;36024;47.974;16.398;2022-09-01T12:57:26;7.07;;;1.30;;
50126;SDS011;36024;47.974;16.398;2022-09-01T13:02:46;3.83;;;1.10;;
50126;SDS011;36024;47.974;16.398;2022-09-01T13:05:24;3.53;;;1.05;;
50126;SDS011;36024;47.974;16.398;2022-09-01T13:08:02;1.80;;;1.00;;
50126;SDS011;36024;47.974;16.398;2022-09-01T13:10:34;1.40;;;0.88;;
50126;SDS011;36024;47.974;16.398;2022-09-01T13:13:04;2.80;;;1.42;;
50126;SDS011;36024;47.974;16.398;2022-09-01T13:15:31;1.10;;;1.00;;
50126;SDS011;36024;47.974;16.398;2022-09-01T13:17:59;2.78;;;0.85;;
50126;SDS011;36024;47.974;16.398;2022-09-01T13:20:25;1.45;;;0.82;;
50126;SDS011;36024;47.974;16.398;2022-09-01T13:22:52;1.58;;;0.90;;
50126;SDS011;36024;47.974;16.398;2022-09-01T13:25:20;1.63;;;0.90;;
50126;SDS011;36024;47.974;16.398;2022-09-01T13:27:48;1.20;;;0.80;;
50126;SDS011;36024;47.974;16.398;2022-09-01T13:30:16;2.83;;;1.10;;
50126;SDS011;36024;47.974;16.398;2022-09-01T13:32:45;2.13;;;1.10;;
50126;SDS011;36024;47.974;16.398;2022-09-01T13:35:33;3.05;;;0.95;;
50126;SDS011;36024;47.974;16.398;2022-09-01T13:37:59;3.40;;;0.95;;
50126;SDS011;36024;47.974;16.398;2022-09-01T13:40:26;3.85;;;1.05;;
50126;SDS011;36024;47.974;16.398;2022-09-01T13:42:53;6.95;;;1.17;;
50126;SDS011;36024;47.974;16.398;2022-09-01T13:45:21;2.78;;;0.90;;
50126;SDS011;36024;47.974;16.398;2022-09-01T13:47:51;2.70;;;0.75;;
50126;SDS011;36024;47.974;16.398;2022-09-01T13:50:38;0.90;;;0.90;;
50126;SDS011;36024;47.974;16.398;2022-09-01T13:53:25;1.33;;;0.80;;
50126;SDS011;36024;47.974;16.398;2022-09-01T13:55:52;4.65;;;0.90;;
50126;SDS011;36024;47.974;16.398;2022-09-01T13:58:19;4.28;;;0.95;;
50126;SDS011;36024;47.974;16.398;2022-09-01T14:00:46;2.80;;;0.85;;
50126;SDS011;36024;47.974;16.398;2022-09-01T14:03:15;1.70;;;0.80;;
50126;SDS011;36024;47.974;16.398;2022-09-01T14:05:44;4.15;;;1.17;;
50126;SDS011;36024;47.974;16.398;2022-09-01T14:08:14;3.67;;;1.00;;
50126;SDS011;36024;47.974;16.398;2022-09-01T14:10:44;1.65;;;0.80;;
50126;SDS011;36024;47.974;16.398;2022-09-01T14:13:14;1.20;;;0.90;;
50126;SDS011;36024;47.974;16.398;2022-09-01T14:15:41;2.25;;;0.80;;
50126;SDS011;36024;47.974;16.398;2022-09-01T14:18:09;0.93;;;0.80;;
50126;SDS011;36024;47.974;16.398;2022-09-01T14:20:37;7.38;;;1.00;;
50126;SDS011;36024;47.974;16.398;2022-09-01T14:23:07;4.35;;;1.15;;
50126;SDS011;36024;47.974;16.398;2022-09-01T14:25:36;2.72;;;0.80;;
50126;SDS011;36024;47.974;16.398;2022-09-01T14:28:07;1.17;;;0.90;;
50126;SDS011;36024;47.974;16.398;2022-09-01T14:30:34;3.63;;;1.10;;
50126;SDS011;36024;47.974;16.398;2022-09-01T14:33:01;2.15;;;0.82;;
50126;SDS011;36024;47.974;16.398;2022-09-01T14:35:29;2.15;;;0.80;;
50126;SDS011;36024;47.974;16.398;2022-09-01T14:38:00;1.08;;;0.90;;
50126;SDS011;36024;47.974;16.398;2022-09-01T14:40:27;2.08;;;0.90;;
50126;SDS011;36024;47.974;16.398;2022-09-01T14:42:54;3.92;;;0.80;;
50126;SDS011;36024;47.974;16.398;2022-09-01T14:45:22;1.50;;;0.68;;
50126;SDS011;36024;47.974;16.398;2022-09-01T14:47:52;0.90;;;0.80;;
50126;SDS011;36024;47.974;16.398;2022-09-01T14:50:20;0.80;;;0.80;;
50126;SDS011;36024;47.974;16.398;2022-09-01T14:52:49;3.15;;;0.82;;
50126;SDS011;36024;47.974;16.398;2022-09-01T14:55:18;1.95;;;0.80;;
50126;SDS011;36024;47.974;16.398;2022-09-01T14:57:46;1.52;;;0.82;;
50126;SDS011;36024;47.974;16.398;2022-09-01T15:00:13;3.05;;;0.90;;
50126;SDS011;36024;47.974;16.398;2022-09-01T15:02:40;2.30;;;1.00;;
50126;SDS011;36024;47.974;16.398;2022-09-01T15:05:07;3.67;;;0.90;;
50126;SDS011;36024;47.974;16.398;2022-09-01T15:07:35;4.47;;;1.10;;
50126;SDS011;36024;47.974;16.398;2022-09-01T15:10:03;0.88;;;0.77;;
50126;SDS011;36024;47.974;16.398;2022-09-01T15:12:30;3.45;;;0.90;;
50126;SDS011;36024;47.974;16.398;2022-09-01T15:14:58;1.23;;;0.70;;
50126;SDS011;36024;47.974;16.398;2022-09-01T15:17:25;3.55;;;0.70;;
50126;SDS011;36024;47.974;16.398;2022-09-01T15:19:52;9.32;;;1.40;;
50126;SDS011;36024;47.974;16.398;2022-09-01T15:22:19;2.90;;;0.90;;
50126;SDS011;36024;47.974;16.398;2022-09-01T15:24:46;2.20;;;1.00;;
50126;SDS011;36024;47.974;16.398;2022-09-01T15:27:13;1.70;;;0.85;;
50126;SDS011;36024;47.974;16.398;2022-09-01T15:29:39;0.70;;;0.70;;
50126;SDS011;36024;47.974;16.398;2022-09-01T15:32:13;0.73;;;0.70;;
50126;SDS011;36024;47.974;16.398;2022-09-01T15:34:53;1.73;;;0.70;;
50126;SDS011;36024;47.974;16.398;2022-09-01T15:37:20;1.52;;;0.77;;
50126;SDS011;36024;47.974;16.398;2022-09-01T15:39:47;3.33;;;0.95;;
50126;SDS011;36024;47.974;16.398;2022-09-01T15:42:14;1.48;;;0.90;;
50126;SDS011;36024;47.974;16.398;2022-09-01T15:44:42;1.30;;;0.65;;
50126;SDS011;36024;47.974;16.398;2022-09-01T15:47:09;2.45;;;0.70;;
50126;SDS011;36024;47.974;16.398;2022-09-01T15:49:36;2.58;;;0.60;;
50126;SDS011;36024;47.974;16.398;2022-09-01T15:52:02;1.20;;;0.90;;
50126;SDS011;36024;47.974;16.398;2022-09-01T15:54:29;0.82;;;0.70;;
50126;SDS011;36024;47.974;16.398;2022-09-01T15:56:56;0.70;;;0.70;;
50126;SDS011;36024;47.974;16.398;2022-09-01T15:59:22;1.25;;;0.63;;
50126;SDS011;36024;47.974;16.398;2022-09-01T16:01:49;3.67;;;0.80;;
50126;SDS011;36024;47.974;16.398;2022-09-01T16:04:18;0.80;;;0.68;;
50126;SDS011;36024;47.974;16.398;2022-09-01T16:06:52;0.73;;;0.68;;
50126;SDS011;36024;47.974;16.398;2022-09-01T16:09:21;1.08;;;0.70;;
50126;SDS011;36024;47.974;16.398;2022-09-01T16:11:48;1.38;;;0.80;;
50126;SDS011;36024;47.974;16.398;2022-09-01T16:14:15;1.10;;;0.70;;
50126;SDS011;36024;47.974;16.398;2022-09-01T16:19:29;3.42;;;0.70;;
50126;SDS011;36024;47.974;16.398;2022-09-01T16:24:46;1.40;;;0.80;;
50126;SDS011;36024;47.974;16.398;2022-09-01T16:27:16;1.85;;;0.68;;
50126;SDS011;36024;47.974;16.398;2022-09-01T16:29:47;0.77;;;0.60;;
50126;SDS011;36024;47.974;16.398;2022-09-01T16:32:21;1.27;;;0.80;;